Airport ICAO


20:19 UTC

26°C

Clear skies


An affordable passengers' Moving Map for your aircraft. Made for the iPad and the iPhone
More information here

LFPO Orly


Paris FRANCE   VFR CAVOK


METAR LFPO 162000Z 34007KT 320V080 CAVOK 26/11 Q1014 NOSIG 0h19min

TAF LFPO 161700Z 1618/1724 34008KT CAVOK PROB30 TEMPO 1618/1620 9999 -SHRA SCT060TCU 3h19min





NOTAMS

OPEN